createdAt,value
2018-12-05T00:10:59.743Z,48.10
2018-12-05T00:13:27.265Z,47.90
2018-12-05T00:18:22.549Z,48.00
2018-12-05T00:20:50.133Z,48.00
2018-12-05T00:23:17.691Z,47.90
2018-12-05T00:25:45.180Z,47.80
2018-12-05T00:28:12.685Z,47.80
2018-12-05T00:35:35.273Z,47.60
2018-12-05T00:40:30.314Z,47.60
2018-12-05T00:45:25.359Z,47.40
2018-12-05T00:55:15.548Z,47.50
2018-12-05T00:57:43.180Z,47.60
2018-12-05T01:00:11.152Z,47.50
2018-12-05T01:02:38.759Z,47.60
2018-12-05T01:05:07.869Z,47.50
2018-12-05T01:10:03.481Z,47.50
2018-12-05T01:12:31.016Z,47.70
2018-12-05T01:22:21.791Z,47.80
2018-12-05T01:34:39.486Z,48.20
2018-12-05T01:37:07.215Z,48.30
2018-12-05T01:44:29.692Z,48.40
2018-12-05T01:54:19.784Z,48.40
2018-12-05T01:59:14.974Z,48.50
2018-12-05T02:01:42.550Z,48.70
2018-12-05T02:25:55.425Z,48.50
2018-12-05T02:36:49.838Z,48.20
2018-12-05T02:39:23.144Z,48.30
2018-12-05T04:26:23.581Z,49.20
2018-12-05T04:43:36.125Z,49.70
2018-12-05T04:53:26.168Z,49.70
2018-12-05T05:18:01.330Z,49.70
2018-12-05T05:20:29.089Z,49.80
2018-12-05T05:25:24.255Z,50.00
2018-12-05T05:32:51.623Z,50.10
2018-12-05T05:50:04.777Z,50.60
2018-12-05T05:52:32.336Z,50.60
2018-12-05T05:54:59.870Z,50.60
2018-12-05T06:04:49.795Z,50.90
2018-12-05T06:09:44.822Z,51.00
2018-12-05T06:12:12.398Z,51.10
2018-12-05T06:17:07.464Z,51.10
2018-12-05T06:19:35.068Z,51.20
2018-12-05T06:32:33.636Z,51.10
2018-12-05T06:37:28.722Z,51.30
2018-12-05T06:39:56.237Z,51.30
2018-12-05T06:44:51.186Z,51.40
2018-12-05T06:47:18.758Z,51.30
2018-12-05T06:54:41.166Z,51.40
2018-12-05T06:57:08.818Z,51.40
2018-12-05T06:59:36.435Z,51.50
2018-12-05T07:04:31.586Z,51.50
2018-12-05T07:14:21.841Z,51.30
2018-12-05T07:16:49.587Z,51.30
2018-12-05T07:21:44.638Z,51.40
2018-12-05T07:24:12.200Z,51.30
2018-12-05T07:36:30.229Z,51.10
2018-12-05T07:46:20.370Z,51.20
2018-12-05T08:06:04.303Z,51.10
2018-12-05T08:08:31.866Z,51.20
2018-12-05T08:20:49.792Z,51.20
2018-12-05T08:23:17.301Z,51.30
2018-12-05T08:30:40.437Z,51.40
2018-12-05T08:38:03.235Z,51.10
2018-12-05T08:42:58.387Z,51.10
2018-12-05T09:05:08.410Z,51.30
2018-12-05T09:17:27.296Z,51.40
2018-12-05T09:34:40.060Z,50.90
2018-12-05T09:39:35.239Z,50.90
2018-12-05T09:56:49.196Z,51.00
2018-12-05T10:04:11.980Z,51.00
2018-12-05T10:11:45.695Z,51.00
2018-12-05T10:16:41.038Z,51.00
2018-12-05T10:26:31.309Z,50.90
2018-12-05T10:28:58.915Z,50.90
2018-12-05T10:31:26.486Z,51.00
2018-12-05T10:36:21.588Z,50.70
2018-12-05T10:38:49.151Z,50.60
2018-12-05T10:41:16.792Z,50.50
2018-12-05T10:46:11.736Z,50.50
2018-12-05T10:56:54.127Z,50.60
2018-12-05T10:59:21.727Z,50.70
2018-12-05T11:02:11.443Z,50.60
2018-12-05T11:04:44.701Z,50.60
2018-12-05T11:08:17.460Z,50.70
2018-12-05T11:14:21.765Z,50.90
2018-12-05T11:16:53.768Z,50.80
2018-12-05T11:19:26.909Z,50.90
2018-12-05T11:22:00.074Z,50.90
2018-12-05T11:24:32.751Z,50.80
2018-12-05T11:27:00.158Z,50.80
2018-12-05T11:29:27.616Z,50.70
2018-12-05T11:31:55.088Z,50.80
2018-12-05T11:34:22.500Z,50.80
2018-12-05T11:36:50.034Z,50.80
2018-12-05T11:39:17.422Z,50.90
2018-12-05T11:41:44.876Z,50.90
2018-12-05T11:44:12.282Z,50.80
2018-12-05T11:46:39.772Z,50.70
2018-12-05T11:49:07.167Z,51.20
2018-12-05T11:51:34.647Z,50.70
2018-12-05T11:54:02.085Z,50.70
2018-12-05T11:56:29.530Z,50.80
2018-12-05T11:58:56.978Z,50.90
2018-12-05T12:01:24.443Z,50.90
2018-12-05T12:03:52.042Z,50.90
2018-12-05T12:06:19.468Z,51.00
2018-12-05T12:08:47.177Z,51.00
2018-12-05T12:11:14.752Z,51.00
2018-12-05T12:13:42.173Z,50.90
2018-12-05T12:16:09.928Z,51.40
2018-12-05T12:18:37.346Z,51.40
2018-12-05T12:21:04.790Z,50.70
2018-12-05T12:23:32.211Z,50.60
2018-12-05T12:25:59.630Z,51.10
2018-12-05T12:28:27.050Z,50.70
2018-12-05T12:30:54.472Z,50.60
2018-12-05T12:33:22.011Z,50.70
2018-12-05T12:38:16.838Z,50.70
2018-12-05T12:40:44.275Z,50.70
2018-12-05T12:43:12.129Z,50.80
2018-12-05T12:45:40.568Z,50.80
2018-12-05T12:48:08.158Z,51.10
2018-12-05T12:50:36.646Z,50.90
2018-12-05T12:53:04.947Z,51.50
2018-12-05T12:55:32.564Z,51.30
2018-12-05T12:58:00.661Z,51.40
2018-12-05T13:00:30.241Z,51.50
2018-12-05T13:02:57.786Z,51.00
2018-12-05T13:05:26.378Z,51.00
2018-12-05T13:07:53.833Z,50.90
2018-12-05T13:10:21.356Z,51.20
2018-12-05T13:12:51.431Z,51.00
2018-12-05T13:15:18.953Z,51.60
2018-12-05T13:17:46.394Z,51.10
2018-12-05T13:20:14.630Z,51.20
2018-12-05T13:22:42.101Z,51.20
2018-12-05T13:25:09.545Z,51.30
2018-12-05T13:27:37.039Z,51.40
2018-12-05T13:30:08.935Z,51.40
2018-12-05T13:32:38.061Z,51.50
2018-12-05T13:35:06.685Z,51.40
2018-12-05T13:37:34.298Z,51.40
2018-12-05T13:40:01.786Z,51.40
2018-12-05T13:42:30.053Z,51.90
2018-12-05T13:44:57.591Z,51.40
2018-12-05T13:47:31.754Z,52.10
2018-12-05T13:49:59.980Z,51.90
2018-12-05T13:52:27.478Z,51.30
2018-12-05T13:54:54.957Z,51.40
2018-12-05T13:57:22.975Z,51.50
2018-12-05T13:59:52.599Z,51.00
2018-12-05T14:02:25.383Z,51.30
2018-12-05T14:04:52.855Z,51.30
2018-12-05T14:07:20.338Z,51.30
2018-12-05T14:09:47.756Z,51.30
2018-12-05T14:12:23.549Z,51.30
2018-12-05T14:14:51.035Z,51.40
2018-12-05T14:17:18.566Z,51.30
2018-12-05T14:19:46.081Z,51.90
2018-12-05T14:22:13.536Z,51.40
2018-12-05T14:24:41.656Z,52.40
2018-12-05T14:27:09.148Z,52.00
2018-12-05T14:29:37.542Z,51.40
2018-12-05T14:32:04.951Z,51.30
2018-12-05T14:34:32.411Z,51.30
2018-12-05T14:36:59.843Z,51.30
2018-12-05T14:39:28.191Z,51.10
2018-12-05T14:41:55.763Z,51.20
2018-12-05T14:44:23.241Z,51.30
2018-12-05T14:46:51.362Z,51.40
2018-12-05T14:49:18.766Z,51.50
2018-12-05T14:51:46.246Z,51.50
2018-12-05T14:54:19.464Z,52.10
2018-12-05T14:59:17.050Z,51.70
2018-12-05T15:01:45.121Z,53.00
2018-12-05T15:04:14.079Z,51.70
2018-12-05T15:06:41.547Z,51.80
2018-12-05T15:11:36.689Z,51.80
2018-12-05T15:14:04.269Z,52.00
2018-12-05T15:16:31.706Z,52.00
2018-12-05T15:18:59.316Z,52.60
2018-12-05T15:21:26.861Z,52.10
2018-12-05T15:23:54.402Z,52.10
2018-12-05T15:26:21.993Z,52.00
2018-12-05T15:31:16.997Z,52.10
2018-12-05T15:33:44.465Z,52.70
2018-12-05T15:36:11.967Z,52.80
2018-12-05T15:38:39.432Z,52.40
2018-12-05T15:41:06.914Z,52.40
2018-12-05T15:43:34.343Z,52.40
2018-12-05T15:46:01.786Z,52.40
2018-12-05T15:48:29.197Z,53.00
2018-12-05T15:50:56.687Z,52.40
2018-12-05T15:53:24.247Z,52.30
2018-12-05T15:55:52.001Z,52.30
2018-12-05T15:58:19.461Z,52.30
2018-12-05T16:00:46.888Z,52.40
2018-12-05T16:03:14.334Z,52.30
2018-12-05T16:05:41.905Z,52.30
2018-12-05T16:08:09.407Z,52.30
2018-12-05T16:10:36.874Z,52.90
2018-12-05T16:13:05.203Z,52.20
2018-12-05T16:15:33.113Z,53.50
2018-12-05T16:18:00.579Z,52.30
2018-12-05T16:20:28.054Z,52.30
2018-12-05T16:22:55.588Z,52.30
2018-12-05T16:25:23.358Z,52.90
2018-12-05T16:27:50.860Z,53.00
2018-12-05T16:30:18.535Z,52.40
2018-12-05T16:32:45.939Z,52.40
2018-12-05T16:35:13.412Z,52.30
2018-12-05T16:37:40.908Z,52.40
2018-12-05T16:40:08.587Z,52.30
2018-12-05T16:42:44.144Z,52.30
2018-12-05T16:45:11.751Z,52.30
2018-12-05T16:47:39.263Z,52.40
2018-12-05T16:50:07.062Z,52.50
2018-12-05T16:52:34.526Z,53.00
2018-12-05T16:57:29.930Z,52.60
2018-12-05T16:59:57.638Z,52.80
2018-12-05T17:04:52.610Z,53.10
2018-12-05T17:07:20.115Z,53.60
2018-12-05T17:09:47.560Z,53.20
2018-12-05T17:12:15.132Z,53.30
2018-12-05T17:14:42.640Z,53.30
2018-12-05T17:17:19.138Z,53.40
2018-12-05T17:19:46.604Z,54.00
2018-12-05T17:22:21.718Z,53.40
2018-12-05T17:24:49.204Z,53.40
2018-12-05T17:27:17.815Z,53.40
2018-12-05T17:29:45.553Z,53.90
2018-12-05T17:32:13.046Z,54.00
2018-12-05T17:34:40.590Z,53.40
2018-12-05T17:37:08.014Z,53.30
2018-12-05T17:42:02.946Z,53.20
2018-12-05T17:44:30.384Z,53.20
2018-12-05T17:46:57.816Z,53.20
2018-12-05T17:49:25.339Z,53.10
2018-12-05T17:51:52.749Z,53.70
2018-12-05T17:54:20.177Z,53.10
2018-12-05T17:56:47.631Z,53.70
2018-12-05T18:01:44.251Z,53.20
2018-12-05T18:09:08.128Z,53.50
2018-12-05T18:11:35.985Z,53.60
2018-12-05T18:14:03.734Z,53.70
2018-12-05T18:16:31.141Z,53.70
2018-12-05T18:18:58.554Z,53.80
2018-12-05T18:21:26.121Z,53.80
2018-12-05T18:23:53.577Z,54.00
2018-12-05T18:26:21.033Z,54.00
2018-12-05T18:28:48.478Z,54.10
2018-12-05T18:31:15.923Z,54.10
2018-12-05T18:33:44.288Z,54.10
2018-12-05T18:36:11.741Z,54.00
2018-12-05T18:38:39.197Z,54.00
2018-12-05T18:41:06.655Z,54.00
2018-12-05T18:43:34.078Z,54.00
2018-12-05T18:46:01.567Z,53.90
2018-12-05T19:06:16.927Z,53.10
2018-12-05T19:08:53.116Z,53.10
2018-12-05T19:14:05.733Z,53.10
2018-12-05T19:19:38.889Z,53.10
2018-12-05T19:35:48.662Z,53.30
2018-12-05T19:41:13.129Z,53.40
2018-12-05T19:46:08.609Z,53.30
2018-12-05T19:56:21.301Z,53.10
2018-12-05T20:04:13.258Z,53.10
2018-12-05T20:12:05.857Z,53.00
2018-12-05T20:20:17.934Z,52.90
2018-12-05T21:04:47.786Z,53.90
2018-12-05T21:23:45.937Z,53.90
2018-12-05T21:36:04.215Z,53.90
2018-12-05T21:40:59.630Z,53.90
2018-12-05T21:48:51.342Z,53.60
2018-12-05T22:20:35.975Z,53.10
2018-12-05T22:23:22.470Z,53.20
2018-12-05T22:47:36.858Z,53.10
2018-12-05T22:57:37.954Z,53.30
2018-12-05T23:02:37.024Z,53.40
2018-12-05T23:07:32.867Z,53.30
2018-12-05T23:10:00.426Z,53.30
2018-12-05T23:12:28.060Z,53.20
2018-12-05T23:24:46.306Z,53.60
2018-12-05T23:27:13.934Z,53.60
2018-12-05T23:29:41.572Z,53.60
2018-12-05T23:32:09.429Z,53.60
2018-12-05T23:34:37.050Z,53.60
2018-12-05T23:37:05.460Z,53.60
2018-12-05T23:39:33.079Z,53.60
2018-12-05T23:42:00.808Z,53.50
2018-12-05T23:44:28.386Z,53.50
2018-12-05T23:49:58.424Z,53.20
2018-12-05T23:52:25.964Z,53.20
